Time;durP1;ratioP1;P1;durP2;ratioP2;P2;SDS_P1;SDS_P2;PMS_P1;PMS_P2;Temp;Humidity;BMP_temperature;BMP_pressure;BME280_temperature;BME280_humidity;BME280_pressure;Samples;Min_cycle;Max_cycle;Signal;HPM_P1;HPM_P2
2022/10/31 00:00:25;;;;;;;13.13;10.00;;;;;;;13.26;100.00;102057.81;5075490;28;20071;-35
2022/10/31 00:02:50;;;;;;;15.35;10.63;;;;;;;13.23;100.00;102050.13;5076167;28;20040;-35
2022/10/31 00:05:15;;;;;;;14.43;9.67;;;;;;;13.27;100.00;102054.88;5075354;28;20044;-35
2022/10/31 00:07:40;;;;;;;15.68;9.60;;;;;;;13.23;100.00;102053.66;5075538;28;20140;-36
2022/10/31 00:10:07;;;;;;;14.27;9.63;;;;;;;13.23;100.00;102061.81;5075335;28;20095;-35
2022/10/31 00:12:32;;;;;;;;;;;;;;;13.30;100.00;102059.88;5075660;28;20077;-35
2022/10/31 00:14:57;;;;;;;16.00;9.10;;;;;;;13.21;100.00;102061.16;5075007;28;19916;-35
2022/10/31 00:17:23;;;;;;;14.73;9.90;;;;;;;13.15;100.00;102059.31;5074909;28;20417;-36
2022/10/31 00:19:48;;;;;;;14.85;10.48;;;;;;;13.08;100.00;102059.38;5075616;28;20154;-35
2022/10/31 00:22:13;;;;;;;13.23;9.13;;;;;;;13.11;100.00;102058.09;5075334;28;20111;-36
2022/10/31 00:24:39;;;;;;;14.15;9.40;;;;;;;13.06;100.00;102069.59;5075123;28;20028;-35
2022/10/31 00:27:04;;;;;;;14.32;9.65;;;;;;;13.02;100.00;102057.50;5074964;28;20020;-35
2022/10/31 00:29:29;;;;;;;14.70;10.37;;;;;;;12.99;100.00;102066.09;5075062;28;20029;-35
2022/10/31 00:31:55;;;;;;;15.53;10.33;;;;;;;12.91;100.00;102058.19;5073850;28;20039;-35
2022/10/31 00:34:20;;;;;;;13.57;9.37;;;;;;;12.84;100.00;102049.28;5075223;28;20280;-35
2022/10/31 00:36:45;;;;;;;15.87;10.83;;;;;;;12.89;100.00;102057.59;5073563;28;20037;-35
2022/10/31 00:39:10;;;;;;;13.97;10.03;;;;;;;12.91;100.00;102068.22;5075197;28;20024;-35
2022/10/31 00:41:36;;;;;;;12.70;8.97;;;;;;;12.83;100.00;102059.31;5073396;28;20352;-35
2022/10/31 00:44:01;;;;;;;11.47;9.60;;;;;;;12.68;100.00;102034.28;5074715;28;20294;-35
2022/10/31 00:46:26;;;;;;;14.30;9.47;;;;;;;12.79;100.00;102055.34;5074737;28;20369;-35
2022/10/31 00:48:52;;;;;;;12.70;9.13;;;;;;;12.73;100.00;102049.94;5074822;28;20258;-36
2022/10/31 00:51:17;;;;;;;11.43;7.75;;;;;;;12.74;100.00;102047.03;5074712;28;20042;-35
2022/10/31 00:53:43;;;;;;;12.33;9.67;;;;;;;12.77;100.00;102053.88;5074799;28;20070;-35
2022/10/31 00:56:08;;;;;;;11.68;8.82;;;;;;;12.73;100.00;102044.50;5074455;28;20262;-35
2022/10/31 00:58:34;;;;;;;11.70;8.98;;;;;;;12.69;100.00;102054.13;5074907;28;20108;-35
2022/10/31 01:00:59;;;;;;;11.40;9.23;;;;;;;12.71;100.00;102061.00;5074328;28;20085;-35
2022/10/31 01:03:27;;;;;;;11.83;8.80;;;;;;;12.65;100.00;102052.91;5074875;28;20577;-35
2022/10/31 01:05:58;;;;;;;10.98;8.55;;;;;;;12.65;100.00;102058.34;5074381;28;20035;-35
2022/10/31 01:08:24;;;;;;;14.77;9.23;;;;;;;12.62;100.00;102060.41;5074033;28;20076;-36
2022/10/31 01:10:59;;;;;;;11.65;9.20;;;;;;;12.61;100.00;102060.66;5074242;28;20064;-35
2022/10/31 01:13:24;;;;;;;11.90;9.10;;;;;;;12.50;100.00;102051.31;5074005;28;20085;-35
2022/10/31 01:15:57;;;;;;;13.20;9.50;;;;;;;12.51;100.00;102047.53;5073942;28;20104;-35
2022/10/31 01:18:23;;;;;;;12.75;9.00;;;;;;;12.47;100.00;102040.03;5074596;28;20410;-35
2022/10/31 01:20:57;;;;;;;15.90;9.50;;;;;;;12.43;100.00;102036.91;5073901;28;20039;-35
2022/10/31 01:23:23;;;;;;;15.60;9.52;;;;;;;12.35;100.00;102029.84;5073584;28;20056;-35
2022/10/31 01:25:48;;;;;;;14.60;9.73;;;;;;;12.28;100.00;102018.19;5073785;28;20033;-35
2022/10/31 01:28:13;;;;;;;11.67;9.37;;;;;;;12.36;100.00;102034.22;5072577;28;20024;-35
2022/10/31 01:30:39;;;;;;;13.63;10.10;;;;;;;12.33;100.00;102028.38;5073761;28;20036;-35
2022/10/31 01:33:04;;;;;;;14.63;9.77;;;;;;;12.28;100.00;102044.47;5074107;28;20028;-35
2022/10/31 01:35:29;;;;;;;11.33;8.77;;;;;;;12.31;100.00;102044.06;5073591;28;20071;-35
2022/10/31 01:37:54;;;;;;;12.83;9.63;;;;;;;12.26;100.00;102041.97;5073614;28;20062;-35
2022/10/31 01:40:20;;;;;;;14.33;9.97;;;;;;;12.16;100.00;102032.63;5073600;28;20078;-35
2022/10/31 01:42:45;;;;;;;11.50;8.97;;;;;;;12.21;100.00;102044.50;5072971;28;20170;-35
2022/10/31 01:45:11;;;;;;;12.63;9.57;;;;;;;12.22;100.00;102048.03;5073777;28;20024;-35
2022/10/31 01:47:48;;;;;;;11.50;9.38;;;;;;;12.19;100.00;102043.03;5073898;28;20024;-35
2022/10/31 01:50:32;;;;;;;11.93;8.75;;;;;;;12.21;100.00;102047.22;5073631;28;20036;-35
2022/10/31 01:52:59;;;;;;;12.35;8.57;;;;;;;12.16;100.00;102049.72;5074199;28;20028;-35
2022/10/31 01:55:29;;;;;;;16.08;9.50;;;;;;;12.11;100.00;102044.94;5073257;28;20107;-34
2022/10/31 01:57:59;;;;;;;12.93;10.25;;;;;;;12.04;100.00;102044.09;5073240;28;20027;-35
2022/10/31 02:00:24;;;;;;;15.65;9.45;;;;;;;11.98;100.00;102036.81;5073050;28;20423;-35
2022/10/31 02:02:51;;;;;;;13.77;9.27;;;;;;;12.02;100.00;102045.38;5072210;28;20070;-35
2022/10/31 02:05:21;;;;;;;12.65;9.55;;;;;;;11.89;100.00;102029.97;5073149;28;20016;-34
2022/10/31 02:08:07;;;;;;;15.73;9.43;;;;;;;11.96;100.00;102035.38;5073840;28;20334;-34
2022/10/31 02:10:33;;;;;;;12.00;9.00;;;;;;;11.94;100.00;102032.88;5073295;28;20024;-35
2022/10/31 02:13:02;;;;;;;11.68;9.20;;;;;;;11.92;100.00;102037.69;5073217;28;20036;-35
2022/10/31 02:15:28;;;;;;;10.73;8.93;;;;;;;11.87;100.00;102031.22;5073791;28;20388;-35
2022/10/31 02:17:53;;;;;;;12.20;9.20;;;;;;;11.88;100.00;102025.59;5073305;28;20111;-35
2022/10/31 02:20:25;;;;;;;11.32;9.05;;;;;;;11.85;100.00;102026.00;5072919;28;20036;-35
2022/10/31 02:23:02;;;;;;;14.95;9.23;;;;;;;11.74;100.00;102013.06;5072632;28;20020;-35
2022/10/31 02:26:07;;;;;;;13.38;9.65;;;;;;;11.77;100.00;102023.50;5073455;28;20035;-35
2022/10/31 02:28:58;;;;;;;11.93;9.23;;;;;;;11.77;100.00;102023.50;5072932;28;20028;-35
2022/10/31 02:31:32;;;;;;;11.68;8.35;;;;;;;11.67;100.00;102025.78;5073409;28;20029;-35
2022/10/31 02:34:20;;;;;;;12.65;8.88;;;;;;;11.66;100.00;102019.50;5073442;28;20113;-34
2022/10/31 02:36:56;;;;;;;12.43;9.00;;;;;;;11.60;100.00;102032.03;5072891;28;20060;-35
2022/10/31 02:39:26;;;;;;;11.48;8.98;;;;;;;11.45;100.00;102015.16;5072841;28;20085;-35
2022/10/31 02:42:11;;;;;;;10.60;9.05;;;;;;;11.47;100.00;102023.94;5072666;28;20108;-35
2022/10/31 02:44:47;;;;;;;12.52;8.90;;;;;;;11.46;100.00;102037.66;5072952;28;20020;-34
2022/10/31 02:47:16;;;;;;;12.88;9.57;;;;;;;11.34;100.00;102021.19;5072777;28;20055;-35
2022/10/31 02:49:59;;;;;;;12.95;9.10;;;;;;;11.33;100.00;102023.09;5072923;28;20365;-34
2022/10/31 02:52:30;;;;;;;13.32;8.45;;;;;;;11.32;100.00;102029.53;5072746;28;20029;-34
2022/10/31 02:54:55;;;;;;;12.30;8.43;;;;;;;11.26;100.00;102026.81;5073920;28;20048;-35
2022/10/31 02:57:34;;;;;;;11.70;8.85;;;;;;;11.26;100.00;102026.81;5077398;28;20071;-35
2022/10/31 03:00:03;;;;;;;10.93;8.60;;;;;;;11.21;100.00;102026.59;5076725;28;20029;-34
2022/10/31 03:02:41;;;;;;;10.75;9.00;;;;;;;11.14;100.00;102023.06;5076575;28;20021;-35
2022/10/31 03:05:32;;;;;;;13.43;9.05;;;;;;;11.20;100.00;102030.34;5077079;28;20032;-34
2022/10/31 03:08:16;;;;;;;11.80;8.48;;;;;;;11.19;100.00;102031.41;5076810;28;20506;-34
2022/10/31 03:10:48;;;;;;;13.73;9.30;;;;;;;11.00;100.00;102025.72;5076686;28;20035;-35
2022/10/31 03:13:22;;;;;;;10.15;8.48;;;;;;;11.04;100.00;102040.53;5076445;28;20030;-35
2022/10/31 03:15:54;;;;;;;12.88;9.27;;;;;;;11.05;100.00;102030.53;5077071;28;20030;-34
2022/10/31 03:18:24;;;;;;;12.68;9.15;;;;;;;10.92;100.00;102023.22;5076367;28;20060;-35
2022/10/31 03:21:16;;;;;;;14.80;8.82;;;;;;;10.94;100.00;102013.03;5076303;28;20474;-34
2022/10/31 03:23:44;;;;;;;13.32;9.70;;;;;;;11.00;100.00;102039.25;5077043;28;20029;-35
2022/10/31 03:26:12;;;;;;;11.38;8.60;;;;;;;10.98;100.00;102041.34;5076106;28;20028;-35
2022/10/31 03:28:43;;;;;;;11.48;9.00;;;;;;;10.96;100.00;102037.16;5076429;28;20029;-34
2022/10/31 03:31:12;;;;;;;12.75;8.90;;;;;;;11.01;100.00;102035.50;5076333;28;20043;-35
2022/10/31 03:33:40;;;;;;;12.68;9.45;;;;;;;10.97;100.00;102039.66;5076523;28;20029;-35
2022/10/31 03:36:08;;;;;;;13.75;9.40;;;;;;;10.98;100.00;102033.25;5076141;28;20028;-34
2022/10/31 03:38:35;;;;;;;13.30;10.45;;;;;;;10.96;100.00;102035.28;5075922;28;20037;-35
2022/10/31 03:41:04;;;;;;;13.32;9.35;;;;;;;10.94;100.00;102039.25;5075550;28;20055;-34
2022/10/31 03:43:33;;;;;;;13.07;9.95;;;;;;;10.92;100.00;102025.91;5076571;28;20038;-34
2022/10/31 03:45:59;;;;;;;12.82;10.38;;;;;;;10.94;100.00;102034.69;5075824;28;20025;-35
2022/10/31 03:48:25;;;;;;;12.75;9.23;;;;;;;10.95;100.00;102035.50;5075654;28;20469;-34
2022/10/31 03:51:04;;;;;;;12.63;9.85;;;;;;;10.94;100.00;102036.56;5074428;28;20086;-35
2022/10/31 03:53:36;;;;;;;12.05;9.00;;;;;;;10.87;100.00;102030.28;5076126;28;20036;-34
2022/10/31 03:56:15;;;;;;;10.10;8.07;;;;;;;10.80;100.00;102022.97;5076216;28;20085;-34
2022/10/31 03:59:03;;;;;;;16.15;8.93;;;;;;;10.79;100.00;102026.72;5075714;28;20032;-34
2022/10/31 04:01:31;;;;;;;10.73;8.70;;;;;;;10.76;100.00;102018.19;5075346;28;20024;-35
2022/10/31 04:03:58;;;;;;;9.40;8.25;;;;;;;10.72;100.00;102027.72;5075558;28;20021;-35
2022/10/31 04:06:24;;;;;;;10.90;8.27;;;;;;;10.73;100.00;102023.97;5075149;28;20107;-35
2022/10/31 04:09:03;;;;;;;13.38;9.38;;;;;;;10.76;100.00;102024.41;5075872;28;20040;-35
2022/10/31 04:11:33;;;;;;;13.77;8.90;;;;;;;10.74;100.00;102026.50;5075007;28;20421;-34
2022/10/31 04:14:01;;;;;;;11.68;8.73;;;;;;;10.71;100.00;102034.19;5075573;28;20103;-35
2022/10/31 04:16:27;;;;;;;9.90;8.02;;;;;;;10.66;100.00;102031.25;5075183;28;20534;-35
2022/10/31 04:18:52;;;;;;;10.13;7.70;;;;;;;10.66;100.00;102031.25;5075228;28;20025;-34
2022/10/31 04:21:17;;;;;;;8.32;7.53;;;;;;;10.64;100.00;102025.19;5074933;28;20024;-35
2022/10/31 04:23:43;;;;;;;11.47;8.03;;;;;;;10.61;100.00;102026.44;5075176;28;20024;-35
2022/10/31 04:26:11;;;;;;;10.87;7.50;;;;;;;10.54;100.00;102023.72;5075181;28;20036;-35
2022/10/31 04:28:37;;;;;;;9.60;7.72;;;;;;;10.48;100.00;102008.28;5075207;28;20024;-34
2022/10/31 04:31:02;;;;;;;11.15;8.18;;;;;;;10.52;100.00;102031.19;5075246;28;20487;-34
2022/10/31 04:33:27;;;;;;;9.13;6.80;;;;;;;10.53;100.00;102030.16;5075001;28;20032;-34
2022/10/31 04:35:53;;;;;;;8.77;7.53;;;;;;;10.37;100.00;102016.16;5073697;28;20538;-34
2022/10/31 04:38:18;;;;;;;9.33;7.03;;;;;;;10.48;100.00;102035.34;5075177;28;20251;-35
2022/10/31 04:40:45;;;;;;;10.93;6.97;;;;;;;10.51;100.00;102034.94;5075007;28;20024;-35
2022/10/31 04:43:10;;;;;;;10.93;7.40;;;;;;;10.46;100.00;102026.59;5074903;28;20024;-35
2022/10/31 04:45:37;;;;;;;9.90;7.53;;;;;;;10.56;100.00;102035.16;5074683;28;20162;-34
2022/10/31 04:48:02;;;;;;;8.75;7.07;;;;;;;10.61;100.00;102033.75;5074648;28;20070;-35
2022/10/31 04:50:27;;;;;;;10.23;7.47;;;;;;;10.51;100.00;102018.72;5074547;28;20461;-35
2022/10/31 04:52:53;;;;;;;9.87;7.43;;;;;;;10.57;100.00;102030.59;5074864;28;20099;-34
2022/10/31 04:55:18;;;;;;;9.83;7.93;;;;;;;10.58;100.00;102030.38;5074808;28;20058;-34
2022/10/31 04:57:48;;;;;;;9.70;7.47;;;;;;;10.51;100.00;102018.72;5074791;28;20067;-35
2022/10/31 05:00:15;;;;;;;11.68;7.13;;;;;;;10.47;100.00;102008.50;5074377;28;20275;-35
2022/10/31 05:02:59;;;;;;;10.35;8.40;;;;;;;10.52;100.00;102033.91;5074393;28;20431;-35
2022/10/31 05:05:27;;;;;;;11.88;8.35;;;;;;;10.42;100.00;102035.31;5075044;28;20031;-35
2022/10/31 05:07:53;;;;;;;11.48;8.18;;;;;;;10.34;100.00;102032.78;5074311;28;20113;-34
2022/10/31 05:10:21;;;;;;;11.85;8.25;;;;;;;10.36;100.00;102023.44;5074183;28;20032;-35
2022/10/31 05:12:47;;;;;;;12.18;8.05;;;;;;;10.28;100.00;102013.59;5073864;28;20108;-35
2022/10/31 05:15:13;;;;;;;;;;;;;;;10.43;100.00;102015.34;5074633;28;20449;-34
2022/10/31 05:17:38;;;;;;;10.55;8.38;;;;;;;10.34;100.00;102003.03;5074187;28;19974;-35
2022/10/31 05:20:04;;;;;;;12.03;8.13;;;;;;;10.24;100.00;102012.34;5074246;28;20024;-35
2022/10/31 05:22:29;;;;;;;11.25;8.65;;;;;;;10.21;100.00;102009.19;5074001;28;20466;-35
2022/10/31 05:24:54;;;;;;;10.90;8.43;;;;;;;10.18;100.00;102009.59;5073942;28;20036;-34
2022/10/31 05:27:20;;;;;;;11.93;8.67;;;;;;;10.24;100.00;102012.34;5073800;28;20103;-35
2022/10/31 05:29:46;;;;;;;11.88;8.70;;;;;;;10.14;100.00;102001.03;5074063;28;20036;-34
2022/10/31 05:32:11;;;;;;;11.90;8.90;;;;;;;10.15;100.00;101999.16;5074522;28;20029;-34
2022/10/31 05:34:36;;;;;;;10.77;9.10;;;;;;;10.23;100.00;102012.53;5073547;28;20034;-35
2022/10/31 05:37:02;;;;;;;15.83;9.70;;;;;;;10.14;100.00;102000.19;5073781;28;20032;-34
2022/10/31 05:39:27;;;;;;;11.53;9.13;;;;;;;10.23;100.00;102007.13;5072740;28;20040;-34
2022/10/31 05:41:52;;;;;;;13.10;9.23;;;;;;;10.29;100.00;101999.06;5073619;28;20028;-34
2022/10/31 05:44:18;;;;;;;12.57;9.50;;;;;;;10.27;100.00;101994.91;5073821;28;20063;-34
2022/10/31 05:46:43;;;;;;;15.83;10.67;;;;;;;10.23;100.00;101980.91;5073427;28;20111;-35
2022/10/31 05:49:08;;;;;;;16.90;11.13;;;;;;;10.36;100.00;101996.41;5074038;28;20052;-34
2022/10/31 05:51:34;;;;;;;16.37;12.03;;;;;;;10.27;100.00;101984.91;5073724;28;20478;-35
2022/10/31 05:53:59;;;;;;;15.73;11.43;;;;;;;10.38;100.00;101994.31;5073442;28;20023;-34
2022/10/31 05:56:24;;;;;;;18.53;12.70;;;;;;;10.40;100.00;101997.66;5073547;28;20063;-34
2022/10/31 05:58:49;;;;;;;22.20;13.17;;;;;;;10.38;100.00;102001.59;5074178;28;20107;-34
2022/10/31 06:01:15;;;;;;;15.83;11.87;;;;;;;10.37;100.00;102006.16;5072684;28;20112;-34
2022/10/31 06:03:40;;;;;;;20.93;13.53;;;;;;;10.42;100.00;101992.88;5073371;28;20031;-34
2022/10/31 06:06:05;;;;;;;20.43;12.40;;;;;;;10.39;100.00;101990.56;5074021;28;20025;-34
2022/10/31 06:08:31;;;;;;;18.87;12.37;;;;;;;10.38;100.00;101994.31;5073875;28;20048;-34
2022/10/31 06:10:56;;;;;;;18.60;12.73;;;;;;;10.29;100.00;101988.25;5073903;28;20281;-35
2022/10/31 06:13:21;;;;;;;20.47;13.00;;;;;;;10.39;100.00;101987.88;5072184;28;20468;-35
2022/10/31 06:15:47;;;;;;;18.67;13.47;;;;;;;10.43;100.00;101983.72;5073023;28;20108;-35
2022/10/31 06:18:12;;;;;;;19.17;12.70;;;;;;;10.34;100.00;101981.41;5073332;28;20021;-35
2022/10/31 06:20:37;;;;;;;23.42;14.60;;;;;;;10.39;100.00;101979.75;5073277;28;20040;-35
2022/10/31 06:23:03;;;;;;;21.43;14.17;;;;;;;10.40;100.00;101983.31;5073253;28;20074;-35
2022/10/31 06:25:29;;;;;;;22.63;14.02;;;;;;;10.41;100.00;101984.97;5072945;28;20044;-35
2022/10/31 06:27:55;;;;;;;20.33;13.82;;;;;;;10.29;100.00;101985.53;5073420;28;20116;-35
2022/10/31 06:30:20;;;;;;;20.85;13.20;;;;;;;10.35;100.00;101992.03;5072899;28;20392;-35
2022/10/31 06:32:46;;;;;;;17.13;12.50;;;;;;;10.33;100.00;101980.56;5073712;28;20035;-35
2022/10/31 06:35:11;;;;;;;20.10;13.97;;;;;;;10.28;100.00;101980.34;5072853;28;20028;-35
2022/10/31 06:37:37;;;;;;;19.33;13.17;;;;;;;10.30;100.00;101989.94;5073078;28;20262;-36
2022/10/31 06:40:02;;;;;;;17.75;11.63;;;;;;;10.18;100.00;101985.25;5073287;28;20475;-35
2022/10/31 06:42:28;;;;;;;16.38;11.50;;;;;;;10.15;100.00;102001.84;5072994;28;20028;-35
2022/10/31 06:44:53;;;;;;;15.23;11.70;;;;;;;10.10;100.00;101998.94;5072748;28;20461;-35
2022/10/31 06:47:19;;;;;;;20.02;12.40;;;;;;;10.09;100.00;101997.25;5073031;28;20025;-35
2022/10/31 06:49:44;;;;;;;20.37;12.50;;;;;;;10.13;100.00;101993.13;5072731;28;20029;-35
2022/10/31 06:52:09;;;;;;;20.27;12.20;;;;;;;10.18;100.00;101996.91;5073011;28;20727;-35
2022/10/31 06:54:35;;;;;;;16.70;12.47;;;;;;;10.27;100.00;101989.50;5072988;28;20036;-35
2022/10/31 06:57:00;;;;;;;17.20;13.20;;;;;;;10.30;100.00;101995.34;5072839;28;20024;-35
2022/10/31 06:59:25;;;;;;;16.47;12.70;;;;;;;10.36;100.00;101991.00;5072884;28;20036;-35
2022/10/31 07:01:51;;;;;;;22.27;14.80;;;;;;;10.40;100.00;101992.25;5072809;28;20041;-35
2022/10/31 07:04:16;;;;;;;32.33;16.07;;;;;;;10.43;100.00;101989.13;5072567;28;20032;-35
2022/10/31 07:06:41;;;;;;;34.97;16.63;;;;;;;10.43;100.00;101980.19;5072687;28;20056;-35
2022/10/31 07:09:07;;;;;;;30.80;16.13;;;;;;;10.54;100.00;101995.81;5072704;28;20082;-35
2022/10/31 07:11:32;;;;;;;32.53;16.83;;;;;;;10.58;100.00;101995.22;5072917;28;20070;-35
2022/10/31 07:13:57;;;;;;;32.77;16.10;;;;;;;10.57;100.00;101985.44;5072754;28;20024;-35
2022/10/31 07:16:23;;;;;;;29.73;15.50;;;;;;;10.64;100.00;101992.72;5072503;28;20274;-35
2022/10/31 07:18:48;;;;;;;33.83;16.47;;;;;;;10.62;100.00;101992.13;5072367;28;20107;-35
2022/10/31 07:21:14;;;;;;;25.08;15.10;;;;;;;10.67;100.00;101992.34;5073051;28;20086;-35
2022/10/31 07:23:39;;;;;;;29.23;15.90;;;;;;;10.70;100.00;101998.19;5071340;28;20115;-35
2022/10/31 07:26:04;;;;;;;18.60;14.30;;;;;;;10.78;100.00;101992.59;5072518;28;20040;-35
2022/10/31 07:28:30;;;;;;;21.23;14.93;;;;;;;10.80;100.00;101995.94;5073260;28;20024;-35
2022/10/31 07:30:57;;;;;;;20.13;15.40;;;;;;;10.83;100.00;101998.22;5072529;28;20060;-35
2022/10/31 07:33:25;;;;;;;17.55;14.60;;;;;;;10.89;100.00;102003.88;5072920;28;20029;-35
2022/10/31 07:35:51;;;;;;;21.75;14.88;;;;;;;10.92;100.00;101996.16;5072384;28;20067;-34
2022/10/31 07:38:16;;;;;;;16.10;13.93;;;;;;;11.00;100.00;101989.72;5073098;28;20057;-35
2022/10/31 07:40:42;;;;;;;16.03;13.60;;;;;;;11.03;100.00;101992.03;5073023;28;20279;-34
2022/10/31 07:43:08;;;;;;;19.13;13.73;;;;;;;11.08;100.00;101998.47;5076156;28;20035;-35
2022/10/31 07:45:34;;;;;;;20.45;14.15;;;;;;;11.12;100.00;102000.75;5075797;28;20064;-34
2022/10/31 07:47:59;;;;;;;16.20;13.80;;;;;;;11.25;100.00;102003.50;5076392;28;20063;-35
2022/10/31 07:50:27;;;;;;;16.60;13.40;;;;;;;11.34;100.00;102002.25;5076199;28;20059;-36
2022/10/31 07:53:09;;;;;;;19.63;15.55;;;;;;;11.37;100.00;101998.28;5076010;28;20334;-35
2022/10/31 07:55:35;;;;;;;15.93;12.77;;;;;;;11.44;100.00;102002.66;5075860;28;20469;-35
2022/10/31 07:58:05;;;;;;;19.35;16.60;;;;;;;11.50;100.00;102007.25;5075888;28;20070;-35
2022/10/31 08:00:33;;;;;;;16.92;13.13;;;;;;;11.62;100.00;102012.88;5075843;28;20028;-36
2022/10/31 08:03:00;;;;;;;23.20;17.88;;;;;;;11.60;100.00;102013.06;5075983;28;20515;-35
2022/10/31 08:05:25;;;;;;;20.73;18.42;;;;;;;11.66;100.00;102007.84;5075977;28;20070;-35
2022/10/31 08:07:51;;;;;;;25.05;19.50;;;;;;;11.73;100.00;102003.28;5075833;28;20060;-36
2022/10/31 08:10:17;;;;;;;21.17;17.70;;;;;;;11.81;100.00;102003.91;5075767;28;20068;-36
2022/10/31 08:12:42;;;;;;;25.08;19.77;;;;;;;11.92;100.00;102004.31;5075486;28;20465;-35
2022/10/31 08:15:08;;;;;;;22.42;17.88;;;;;;;11.98;100.00;102001.59;5075295;28;20127;-35
2022/10/31 08:17:37;;;;;;;23.80;18.58;;;;;;;12.10;100.00;102010.75;5076018;28;20052;-36
2022/10/31 08:20:04;;;;;;;26.23;22.02;;;;;;;12.17;100.00;102002.59;5076507;28;20024;-35
2022/10/31 08:22:30;;;;;;;30.60;22.45;;;;;;;12.26;100.00;102003.19;5075927;28;20424;-35
2022/10/31 08:24:55;;;;;;;25.25;22.55;;;;;;;12.40;100.00;102015.66;5075439;28;20099;-35
2022/10/31 08:27:20;;;;;;;28.10;23.67;;;;;;;12.46;100.00;101994.97;5075307;28;20028;-35
2022/10/31 08:29:46;;;;;;;30.03;23.43;;;;;;;12.52;100.00;101994.94;5075630;28;20024;-35
2022/10/31 08:32:11;;;;;;;30.50;22.63;;;;;;;12.57;100.00;101997.81;5075181;28;20024;-35
2022/10/31 08:34:36;;;;;;;28.57;23.57;;;;;;;12.56;100.00;101984.47;5075351;28;20035;-35
2022/10/31 08:37:02;;;;;;;28.10;24.10;;;;;;;12.61;100.00;101984.66;5075032;28;20040;-35
2022/10/31 08:39:27;;;;;;;30.40;22.80;;;;;;;12.65;100.00;101994.03;5075549;28;20267;-35
2022/10/31 08:41:52;;;;;;;33.23;25.27;;;;;;;12.70;100.00;102004.25;5075712;28;20033;-35
2022/10/31 08:44:18;;;;;;;32.07;25.97;;;;;;;12.69;100.00;101989.84;5075777;28;20033;-35
2022/10/31 08:46:43;;;;;;;34.15;26.65;;;;;;;12.72;100.00;101978.53;5074921;28;20028;-35
2022/10/31 08:49:08;;;;;;;36.17;27.73;;;;;;;12.81;100.00;101987.25;5075505;28;20047;-36
2022/10/31 08:51:34;;;;;;;35.47;26.43;;;;;;;12.75;100.00;101964.53;5074849;28;20047;-35
2022/10/31 08:53:59;;;;;;;35.80;26.93;;;;;;;12.81;100.00;101947.38;5074634;28;20453;-36
2022/10/31 08:56:24;;;;;;;36.67;27.03;;;;;;;12.82;100.00;101937.34;5074541;28;20020;-36
2022/10/31 08:58:51;;;;;;;35.70;26.57;;;;;;;12.83;100.00;101947.16;5075190;28;20104;-36
2022/10/31 09:01:16;;;;;;;33.10;24.65;;;;;;;12.86;100.00;101935.88;5075504;28;20266;-36
2022/10/31 09:03:41;;;;;;;34.70;24.50;;;;;;;12.90;100.00;101947.94;5075066;28;20037;-36
2022/10/31 09:06:08;;;;;;;30.03;23.23;;;;;;;12.94;100.00;101953.78;5074409;28;20037;-35
2022/10/31 09:08:34;;;;;;;36.20;25.55;;;;;;;12.97;100.00;101965.00;5074290;28;20690;-36
2022/10/31 09:11:00;;;;;;;29.00;22.42;;;;;;;13.01;100.00;101959.97;5074652;28;20051;-36
2022/10/31 09:13:26;;;;;;;29.20;22.90;;;;;;;13.05;100.00;101972.91;5074977;28;20115;-36
2022/10/31 09:15:51;;;;;;;30.35;22.52;;;;;;;13.08;100.00;101966.22;5074262;28;20033;-36
2022/10/31 09:18:19;;;;;;;28.63;22.23;;;;;;;13.13;100.00;101960.97;5074523;28;20028;-36
2022/10/31 09:20:46;;;;;;;26.50;21.65;;;;;;;13.15;100.00;101961.56;5074872;28;20381;-36
2022/10/31 09:23:19;;;;;;;28.42;21.52;;;;;;;13.19;100.00;101962.78;5074624;28;20029;-36
2022/10/31 09:25:46;;;;;;;25.83;20.83;;;;;;;13.25;100.00;101961.09;5074343;28;20066;-35
2022/10/31 09:28:14;;;;;;;27.98;22.02;;;;;;;13.21;100.00;101959.84;5073939;28;20032;-36
2022/10/31 09:30:40;;;;;;;32.75;22.77;;;;;;;13.32;100.00;101954.56;5073945;28;20060;-36
2022/10/31 09:33:09;;;;;;;28.58;22.80;;;;;;;13.35;100.00;101945.13;5073237;28;20063;-36
2022/10/31 09:35:35;;;;;;;27.45;22.10;;;;;;;13.38;100.00;101939.25;5074217;28;20073;-36
2022/10/31 09:38:03;;;;;;;24.73;21.50;;;;;;;13.42;100.00;101932.31;5074153;28;20388;-36
2022/10/31 09:40:35;;;;;;;28.88;21.30;;;;;;;13.37;100.00;101927.56;5073929;28;20403;-36
2022/10/31 09:43:00;;;;;;;30.48;21.88;;;;;;;13.37;100.00;101921.25;5074039;28;20032;-36
2022/10/31 09:45:43;;;;;;;27.43;20.27;;;;;;;13.41;100.00;101906.19;5074549;28;20322;-36
2022/10/31 09:48:22;;;;;;;30.73;21.50;;;;;;;13.45;100.00;101901.13;5073737;28;20033;-36
2022/10/31 09:50:56;;;;;;;29.10;22.00;;;;;;;13.51;100.00;101898.34;5074420;28;20373;-35
2022/10/31 09:53:33;;;;;;;25.63;21.55;;;;;;;13.52;100.00;101902.75;5074195;28;20115;-36
2022/10/31 09:56:00;;;;;;;27.95;21.15;;;;;;;13.50;100.00;101907.56;5074146;28;20033;-36
2022/10/31 09:58:27;;;;;;;;;;;;;;;13.59;100.00;101908.09;5074285;28;20468;-36
2022/10/31 10:00:57;;;;;;;25.63;19.65;;;;;;;13.59;100.00;101916.25;5073603;28;19908;-36
2022/10/31 10:03:25;;;;;;;24.88;19.40;;;;;;;13.58;100.00;101899.13;5073516;28;20032;-34
2022/10/31 10:06:08;;;;;;;25.48;21.55;;;;;;;13.63;100.00;101899.28;5073609;28;20388;-34
2022/10/31 10:08:35;;;;;;;25.98;20.10;;;;;;;13.64;100.00;101889.22;5074016;28;20048;-34
2022/10/31 10:11:25;;;;;;;29.42;20.83;;;;;;;13.66;100.00;101906.13;5073315;28;20035;-35
2022/10/31 10:14:08;;;;;;;30.48;21.88;;;;;;;13.71;100.00;101886.44;5074105;28;20032;-36
2022/10/31 10:16:48;;;;;;;31.25;21.17;;;;;;;13.73;100.00;101874.28;5074003;28;20085;-34
2022/10/31 10:19:22;;;;;;;27.50;21.00;;;;;;;13.83;100.00;101868.31;5074281;28;20044;-34
2022/10/31 10:22:14;;;;;;;29.13;22.73;;;;;;;13.94;100.00;101856.66;5073682;28;20040;-34
2022/10/31 10:25:07;;;;;;;34.72;24.50;;;;;;;14.01;100.00;101846.56;5073315;28;20036;-35
2022/10/31 10:27:54;;;;;;;35.30;23.98;;;;;;;14.03;100.00;101852.56;5071920;28;20029;-35
2022/10/31 10:30:26;;;;;;;39.47;25.15;;;;;;;14.13;100.00;101855.56;5073557;28;20106;-35
2022/10/31 10:33:02;;;;;;;36.22;25.83;;;;;;;14.16;100.00;101846.97;5073111;28;20400;-35
2022/10/31 10:35:39;;;;;;;33.13;23.83;;;;;;;14.18;100.00;101827.69;5073129;28;20032;-35
2022/10/31 10:38:39;;;;;;;35.90;24.73;;;;;;;14.22;100.00;101825.34;5073912;28;20028;-35
2022/10/31 10:41:18;;;;;;;36.10;25.30;;;;;;;14.22;100.00;101826.16;5073903;28;20021;-35
2022/10/31 10:43:44;;;;;;;33.17;24.52;;;;;;;14.24;100.00;101845.78;5073156;28;20122;-35
2022/10/31 10:49:17;;;;;;;35.08;23.50;;;;;;;14.32;100.00;101834.59;5073132;28;20177;-35
2022/10/31 10:52:02;;;;;;;34.15;23.75;;;;;;;14.44;100.00;101842.78;5073094;28;20025;-35
2022/10/31 10:54:40;;;;;;;34.40;24.50;;;;;;;14.50;100.00;101855.50;5074146;28;20033;-35
2022/10/31 10:57:21;;;;;;;33.47;25.08;;;;;;;14.56;100.00;101845.59;5073011;28;20448;-34
2022/10/31 10:59:47;;;;;;;36.67;24.75;;;;;;;14.58;100.00;101838.81;5073808;28;20108;-35
2022/10/31 11:02:23;;;;;;;37.92;26.25;;;;;;;14.63;100.00;101828.06;5073017;28;20067;-35
2022/10/31 11:04:54;;;;;;;34.53;25.05;;;;;;;14.68;100.00;101813.75;5072075;28;20036;-35
2022/10/31 11:07:20;;;;;;;36.28;26.35;;;;;;;14.65;100.00;101795.19;5072356;28;20074;-35
2022/10/31 11:09:46;;;;;;;36.35;26.25;;;;;;;14.74;100.00;101803.81;5072900;28;20059;-34
2022/10/31 11:12:20;;;;;;;;;;;;;;;14.83;100.00;101810.56;5074129;28;20060;-35
2022/10/31 11:15:03;;;;;;;34.83;26.05;;;;;;;14.86;100.00;101815.56;5073396;28;20359;-35
2022/10/31 11:17:36;;;;;;;35.55;26.23;;;;;;;14.85;100.00;101808.47;5076662;28;20036;-35